KEDW

Edwards AFB Airport

Edwards, California, USA
METAR KEDW 112358Z 00000KT 60SM CLR 16/01 A3006 RMK AO2A SLP177 T01600013 10172 20072 55004
Observed Flight Rules
Dec-11 @ 23:58 UTC (50 minutes ago) Visual Flight Rules
Visibility Clouds
60 miles
  • Clear skies
Temperatures Readings
Current 16°C / 61°F
Dewpoint 1°C / 34°F
Humidity 36%
Altimeter 30.06" Hg
Pressure 1017.7 hPa
Elevation 702
METAR KEDW 112358Z 00000KT 60SM CLR 16/01 A3006 RMK AO2A SLP177 T01600013 10172 20072 55004
Observed Flight Rules
Dec-11 @ 23:58 UTC
(50 minutes ago)
VFR
Clouds
  • Clear skies
Temperature Dewpoint
16°C / 61°F 1°C / 34°F
Humidity Altimeter Pressure
36% 30.06" Hg 1017.7 hPa